createdAt,value
2022-11-18T00:00:49.883Z,81.34
2022-11-18T00:01:53.505Z,81.43
2022-11-18T00:02:55.088Z,81.27
2022-11-18T00:03:58.949Z,81.48
2022-11-18T00:05:00.568Z,81.12
2022-11-18T00:06:03.247Z,81.39
2022-11-18T00:07:05.023Z,81.63
2022-11-18T00:08:07.590Z,81.21
2022-11-18T00:09:10.250Z,80.86
2022-11-18T00:10:11.773Z,81.35
2022-11-18T00:11:37.232Z,81.09
2022-11-18T00:12:57.645Z,81.20
2022-11-18T00:14:17.784Z,81.16
2022-11-18T00:15:20.303Z,81.27
2022-11-18T00:16:22.332Z,80.83
2022-11-18T00:17:24.945Z,81.46
2022-11-18T00:18:26.945Z,81.24
2022-11-18T00:19:33.697Z,81.47
2022-11-18T00:20:35.532Z,81.36
2022-11-18T00:21:38.081Z,81.32
2022-11-18T00:22:40.551Z,81.33
2022-11-18T00:23:42.057Z,81.23
2022-11-18T00:24:44.540Z,81.62
2022-11-18T00:25:46.107Z,81.10
2022-11-18T00:26:49.439Z,81.17
2022-11-18T00:27:51.002Z,81.32
2022-11-18T00:28:53.505Z,81.42
2022-11-18T00:29:55.021Z,81.56
2022-11-18T00:31:02.285Z,81.53
2022-11-18T00:32:05.084Z,81.59
2022-11-18T00:33:06.587Z,81.54
2022-11-18T00:34:12.247Z,81.48
2022-11-18T00:35:15.130Z,81.67
2022-11-18T00:36:17.947Z,81.42
2022-11-18T00:37:20.670Z,81.64
2022-11-18T00:38:22.471Z,81.63
2022-11-18T00:39:25.997Z,81.53
2022-11-18T00:40:27.689Z,81.44
2022-11-18T00:41:51.051Z,81.64
2022-11-18T00:42:52.601Z,81.44
2022-11-18T00:43:54.171Z,81.58
2022-11-18T00:44:56.638Z,81.55
2022-11-18T00:45:58.528Z,81.58
2022-11-18T00:47:01.287Z,81.62
2022-11-18T00:48:03.145Z,81.54
2022-11-18T00:49:05.658Z,81.58
2022-11-18T00:50:08.777Z,81.55
2022-11-18T00:51:14.497Z,81.71
2022-11-18T00:52:16.980Z,81.74
2022-11-18T00:53:18.811Z,81.73
2022-11-18T00:54:21.720Z,81.56
2022-11-18T00:55:23.261Z,81.59
2022-11-18T00:56:25.781Z,81.69
2022-11-18T00:57:27.439Z,81.90
2022-11-18T00:58:30.504Z,81.98
2022-11-18T00:59:32.050Z,81.86
2022-11-18T01:00:34.615Z,81.88
2022-11-18T01:01:36.977Z,81.97
2022-11-18T01:02:39.611Z,81.92
2022-11-18T01:03:41.127Z,81.97
2022-11-18T01:04:43.616Z,82.00
2022-11-18T01:05:45.482Z,81.97
2022-11-18T01:06:49.390Z,81.75
2022-11-18T01:07:50.889Z,81.79
2022-11-18T01:08:53.438Z,81.81
2022-11-18T01:09:55.799Z,82.00
2022-11-18T01:11:18.439Z,81.93
2022-11-18T01:12:38.736Z,81.89
2022-11-18T01:13:40.254Z,81.74
2022-11-18T01:14:41.840Z,82.09
2022-11-18T01:15:46.530Z,82.21
2022-11-18T01:16:51.150Z,81.99
2022-11-18T01:17:53.745Z,81.89
2022-11-18T01:18:55.614Z,82.05
2022-11-18T01:19:58.165Z,81.91
2022-11-18T01:21:00.681Z,82.18
2022-11-18T01:22:04.819Z,82.18
2022-11-18T01:23:06.373Z,81.99
2022-11-18T01:24:08.976Z,82.13
2022-11-18T01:25:10.478Z,82.23
2022-11-18T01:26:15.307Z,82.18
2022-11-18T01:27:16.819Z,82.14
2022-11-18T01:28:23.653Z,82.35
2022-11-18T01:29:25.738Z,82.41
2022-11-18T01:30:28.256Z,82.29
2022-11-18T01:31:29.764Z,82.38
2022-11-18T01:32:32.271Z,82.35
2022-11-18T01:33:34.154Z,82.30
2022-11-18T01:34:36.676Z,82.60
2022-11-18T01:35:40.124Z,82.71
2022-11-18T01:36:42.685Z,82.49
2022-11-18T01:37:45.517Z,82.59
2022-11-18T01:38:48.954Z,82.75
2022-11-18T01:39:50.453Z,82.54
2022-11-18T01:40:52.932Z,82.65
2022-11-18T01:41:54.639Z,82.53
2022-11-18T01:42:57.388Z,82.67
2022-11-18T01:44:01.996Z,82.62
2022-11-18T01:45:10.450Z,82.74
2022-11-18T01:46:11.975Z,82.66
2022-11-18T01:47:14.672Z,82.52
2022-11-18T01:48:20.505Z,82.90
2022-11-18T01:49:23.503Z,82.64
2022-11-18T01:50:26.123Z,82.72
2022-11-18T01:51:33.472Z,82.79
2022-11-18T01:52:37.430Z,82.65
2022-11-18T01:53:44.059Z,82.61
2022-11-18T01:54:49.785Z,82.98
2022-11-18T01:55:55.225Z,82.76
2022-11-18T01:57:03.390Z,82.73
2022-11-18T01:58:11.719Z,82.93
2022-11-18T01:59:18.142Z,82.86
2022-11-18T02:00:21.526Z,82.88
2022-11-18T02:01:23.643Z,82.82
2022-11-18T02:02:28.026Z,82.99
2022-11-18T02:03:29.856Z,83.11
2022-11-18T02:04:32.507Z,83.00
2022-11-18T02:05:35.368Z,83.25
2022-11-18T02:06:38.271Z,82.95
2022-11-18T02:07:43.130Z,83.26
2022-11-18T02:08:47.501Z,83.08
2022-11-18T02:09:50.557Z,82.99
2022-11-18T02:10:53.110Z,83.20
2022-11-18T02:11:54.967Z,82.89
2022-11-18T02:12:58.890Z,83.01
2022-11-18T02:14:03.083Z,83.14
2022-11-18T02:15:06.569Z,82.88
2022-11-18T02:16:15.665Z,82.69
2022-11-18T02:17:31.484Z,83.00
2022-11-18T02:18:41.848Z,83.21
2022-11-18T02:20:22.036Z,82.96
2022-11-18T02:21:35.160Z,82.96
2022-11-18T02:23:08.601Z,82.85
2022-11-18T02:24:29.994Z,82.97
2022-11-18T02:25:37.426Z,83.05
2022-11-18T02:27:15.015Z,83.04
2022-11-18T02:28:37.551Z,82.96
2022-11-18T02:29:45.011Z,82.69
2022-11-18T02:30:53.526Z,82.83
2022-11-18T02:32:00.379Z,82.94
2022-11-18T02:33:07.151Z,82.74
2022-11-18T02:34:20.052Z,82.97
2022-11-18T02:35:28.437Z,82.92
2022-11-18T02:36:41.306Z,82.86
2022-11-18T02:37:47.441Z,82.95
2022-11-18T02:38:54.996Z,82.86
2022-11-18T02:40:04.024Z,82.94
2022-11-18T02:41:10.210Z,82.94
2022-11-18T02:42:14.976Z,82.63
2022-11-18T02:43:21.771Z,82.88
2022-11-18T02:44:26.076Z,83.12
2022-11-18T02:45:31.789Z,82.67
2022-11-18T02:46:36.020Z,82.71
2022-11-18T02:47:39.446Z,83.04
2022-11-18T02:48:45.158Z,82.83
2022-11-18T02:49:52.860Z,83.10
2022-11-18T02:50:55.382Z,82.87
2022-11-18T02:51:59.381Z,83.09
2022-11-18T02:53:05.860Z,82.91
2022-11-18T02:54:11.332Z,83.02
2022-11-18T02:55:15.100Z,82.84
2022-11-18T02:56:20.839Z,83.15
2022-11-18T02:57:26.143Z,82.91
2022-11-18T02:58:28.798Z,83.00
2022-11-18T02:59:30.430Z,83.01
2022-11-18T03:00:34.607Z,82.99
2022-11-18T03:01:36.924Z,83.11
2022-11-18T03:02:44.080Z,82.96
2022-11-18T03:03:45.720Z,82.98
2022-11-18T03:04:49.826Z,83.03
2022-11-18T03:05:58.265Z,83.29
2022-11-18T03:07:12.753Z,83.03
2022-11-18T03:08:20.899Z,82.93
2022-11-18T03:09:29.152Z,83.08
2022-11-18T03:10:35.849Z,83.02
2022-11-18T03:11:52.343Z,82.94
2022-11-18T03:13:04.353Z,82.80
2022-11-18T03:14:16.904Z,83.06
2022-11-18T03:15:24.787Z,83.25
2022-11-18T03:16:33.303Z,83.05
2022-11-18T03:17:45.621Z,83.05
2022-11-18T03:18:56.186Z,83.10
2022-11-18T03:20:06.571Z,82.92
2022-11-18T03:21:15.281Z,83.04
2022-11-18T03:22:24.103Z,82.97
2022-11-18T03:23:31.480Z,83.12
2022-11-18T03:24:38.099Z,83.16
2022-11-18T03:25:46.072Z,82.90
2022-11-18T03:26:53.838Z,83.06
2022-11-18T03:28:04.079Z,83.05
2022-11-18T03:29:10.314Z,82.94
2022-11-18T03:30:18.716Z,83.13
2022-11-18T03:31:25.173Z,83.08
2022-11-18T03:32:33.632Z,82.93
2022-11-18T03:33:39.091Z,82.89
2022-11-18T03:34:45.346Z,83.05
2022-11-18T03:35:52.261Z,83.11
2022-11-18T03:37:00.808Z,83.01
2022-11-18T03:38:08.024Z,83.05
2022-11-18T03:39:13.151Z,83.20
2022-11-18T03:40:21.120Z,83.16
2022-11-18T03:41:27.036Z,83.03
2022-11-18T03:42:33.175Z,83.00
2022-11-18T03:43:39.069Z,83.14
2022-11-18T03:44:49.580Z,83.18
2022-11-18T03:45:57.644Z,83.19
2022-11-18T03:47:04.397Z,83.12
2022-11-18T03:48:13.136Z,83.07
2022-11-18T03:49:20.747Z,82.84
2022-11-18T03:50:27.389Z,83.13
2022-11-18T03:51:33.643Z,82.87
2022-11-18T03:52:38.421Z,83.10
2022-11-18T03:53:44.521Z,83.23
2022-11-18T03:54:49.564Z,83.05
2022-11-18T03:55:55.204Z,83.11
2022-11-18T03:57:00.471Z,82.92
2022-11-18T03:58:08.239Z,83.03
2022-11-18T03:59:18.270Z,82.92
2022-11-18T04:00:20.383Z,83.31
2022-11-18T04:01:30.473Z,83.14
2022-11-18T04:02:32.251Z,83.13
2022-11-18T04:03:36.403Z,83.17
2022-11-18T04:04:38.701Z,83.04
2022-11-18T04:05:43.758Z,83.11
2022-11-18T04:06:49.370Z,83.13
2022-11-18T04:07:58.155Z,83.17
2022-11-18T04:09:03.366Z,83.14
2022-11-18T04:10:14.339Z,83.10
2022-11-18T04:11:38.376Z,83.17
2022-11-18T04:12:47.028Z,83.16
2022-11-18T04:13:48.747Z,83.11
2022-11-18T04:14:55.287Z,82.95
2022-11-18T04:15:57.272Z,82.91
2022-11-18T04:16:59.847Z,83.12
2022-11-18T04:18:01.402Z,83.23
2022-11-18T04:19:18.353Z,83.23
2022-11-18T04:20:23.120Z,83.00
2022-11-18T04:21:24.874Z,83.30
2022-11-18T04:22:27.393Z,83.26
2022-11-18T04:23:28.924Z,83.10
2022-11-18T04:24:31.427Z,83.09
2022-11-18T04:25:33.350Z,83.29
2022-11-18T04:26:39.757Z,83.40
2022-11-18T04:27:45.906Z,83.15
2022-11-18T04:28:48.588Z,83.14
2022-11-18T04:29:50.142Z,83.28
2022-11-18T04:30:54.742Z,83.06
2022-11-18T04:31:59.402Z,83.35
2022-11-18T04:33:02.904Z,83.21
2022-11-18T04:34:05.736Z,82.90
2022-11-18T04:35:08.939Z,83.04
2022-11-18T04:36:10.534Z,83.05
2022-11-18T04:37:13.280Z,83.13
2022-11-18T04:38:19.191Z,83.03
2022-11-18T04:39:24.669Z,83.07
2022-11-18T04:40:26.271Z,83.06
2022-11-18T04:41:42.739Z,83.29
2022-11-18T04:42:45.541Z,82.95
2022-11-18T04:43:47.047Z,83.13
2022-11-18T04:44:49.510Z,82.91
2022-11-18T04:45:51.078Z,83.15
2022-11-18T04:46:55.314Z,83.09
2022-11-18T04:48:03.100Z,82.99
2022-11-18T04:49:07.595Z,83.09
2022-11-18T04:50:11.037Z,82.98
2022-11-18T04:51:12.623Z,83.30
2022-11-18T04:52:15.694Z,83.24
2022-11-18T04:53:17.257Z,83.19
2022-11-18T04:54:21.139Z,83.25
2022-11-18T04:55:22.748Z,83.08
2022-11-18T04:56:25.428Z,83.19
2022-11-18T04:57:27.984Z,83.01
2022-11-18T04:58:30.934Z,83.02
2022-11-18T04:59:34.569Z,83.06
2022-11-18T05:00:36.217Z,83.16
2022-11-18T05:01:39.209Z,83.21
2022-11-18T05:02:41.872Z,83.02
2022-11-18T05:03:47.800Z,82.90
2022-11-18T05:04:54.889Z,83.15
2022-11-18T05:05:56.549Z,83.09
2022-11-18T05:07:06.230Z,83.08
2022-11-18T05:08:07.861Z,83.17
2022-11-18T05:09:17.758Z,82.97
2022-11-18T05:10:19.502Z,83.19
2022-11-18T05:11:40.408Z,83.14
2022-11-18T05:12:51.729Z,82.96
2022-11-18T05:13:53.555Z,83.20
2022-11-18T05:14:56.117Z,83.05
2022-11-18T05:16:01.145Z,83.24
2022-11-18T05:17:11.465Z,83.11
2022-11-18T05:18:14.316Z,83.34
2022-11-18T05:19:25.570Z,83.12
2022-11-18T05:20:34.262Z,83.25
2022-11-18T05:21:40.196Z,83.26
2022-11-18T05:22:47.406Z,83.40
2022-11-18T05:24:00.101Z,83.58
2022-11-18T05:25:09.811Z,83.14
2022-11-18T05:26:15.435Z,83.42
2022-11-18T05:27:25.163Z,83.30
2022-11-18T05:28:37.269Z,83.55
2022-11-18T05:29:39.817Z,83.40
2022-11-18T05:30:41.388Z,83.35
2022-11-18T05:31:44.041Z,83.40
2022-11-18T05:32:48.656Z,83.43
2022-11-18T05:33:52.156Z,83.39
2022-11-18T05:34:54.721Z,83.44
2022-11-18T05:35:57.673Z,83.52
2022-11-18T05:37:00.713Z,83.61
2022-11-18T05:38:02.241Z,83.38
2022-11-18T05:39:05.008Z,83.29
2022-11-18T05:40:08.155Z,83.27
2022-11-18T05:41:31.287Z,83.32
2022-11-18T05:42:51.587Z,83.44
2022-11-18T05:43:53.168Z,83.19
2022-11-18T05:44:58.449Z,83.40
2022-11-18T05:46:00.831Z,83.48
2022-11-18T05:47:03.308Z,83.40
2022-11-18T05:48:06.798Z,83.49
2022-11-18T05:49:09.444Z,83.58
2022-11-18T05:50:10.984Z,83.28
2022-11-18T05:51:14.854Z,83.65
2022-11-18T05:52:16.358Z,83.54
2022-11-18T05:53:20.551Z,83.39
2022-11-18T05:54:22.754Z,83.66
2022-11-18T05:55:30.284Z,83.80
2022-11-18T05:56:36.810Z,83.81
2022-11-18T05:57:39.370Z,83.55
2022-11-18T05:58:40.907Z,83.73
2022-11-18T05:59:43.435Z,83.59
2022-11-18T06:00:49.471Z,83.61
2022-11-18T06:01:57.688Z,83.69
2022-11-18T06:03:00.482Z,83.60
2022-11-18T06:04:07.635Z,83.59
2022-11-18T06:05:12.444Z,83.27
2022-11-18T06:06:18.681Z,83.51
2022-11-18T06:07:24.346Z,83.63
2022-11-18T06:08:30.806Z,83.50
2022-11-18T06:09:38.578Z,83.56
2022-11-18T06:10:43.696Z,83.40
2022-11-18T06:11:49.690Z,83.35
2022-11-18T06:12:55.052Z,83.52
2022-11-18T06:14:02.917Z,83.41
2022-11-18T06:15:09.760Z,83.17
2022-11-18T06:16:13.836Z,83.31
2022-11-18T06:17:18.992Z,83.17
2022-11-18T06:18:24.675Z,83.38
2022-11-18T06:19:26.539Z,83.24
2022-11-18T06:20:29.527Z,83.37
2022-11-18T06:21:33.642Z,83.30
2022-11-18T06:22:36.552Z,83.32
2022-11-18T06:23:40.188Z,83.33
2022-11-18T06:24:44.138Z,83.58
2022-11-18T06:25:45.938Z,83.41
2022-11-18T06:26:49.301Z,83.29
2022-11-18T06:27:55.146Z,83.27
2022-11-18T06:28:58.023Z,83.52
2022-11-18T06:29:59.567Z,83.14
2022-11-18T06:31:02.014Z,83.35
2022-11-18T06:32:03.567Z,83.30
2022-11-18T06:33:06.148Z,83.47
2022-11-18T06:34:08.755Z,83.47
2022-11-18T06:35:11.946Z,83.30
2022-11-18T06:36:14.481Z,83.10
2022-11-18T06:37:20.466Z,83.23
2022-11-18T06:38:24.886Z,83.13
2022-11-18T06:39:26.524Z,83.29
2022-11-18T06:40:34.289Z,83.17
2022-11-18T06:41:37.405Z,83.11
2022-11-18T06:42:57.449Z,82.92
2022-11-18T06:43:59.213Z,83.03
2022-11-18T06:45:02.013Z,82.92
2022-11-18T06:46:24.180Z,83.45
2022-11-18T06:47:26.792Z,83.03
2022-11-18T06:48:28.420Z,83.02
2022-11-18T06:49:31.097Z,82.93
2022-11-18T06:50:32.767Z,82.99
2022-11-18T06:51:35.838Z,82.70
2022-11-18T06:52:39.808Z,82.76
2022-11-18T06:53:41.494Z,82.66
2022-11-18T06:54:44.082Z,82.74
2022-11-18T06:55:45.673Z,82.81
2022-11-18T06:56:48.351Z,82.88
2022-11-18T06:57:49.894Z,83.01
2022-11-18T06:58:57.444Z,82.96
2022-11-18T07:00:02.245Z,82.90
2022-11-18T07:01:11.169Z,82.78
2022-11-18T07:02:13.932Z,83.02
2022-11-18T07:03:15.444Z,82.89
2022-11-18T07:04:17.980Z,82.78
2022-11-18T07:05:19.546Z,82.58
2022-11-18T07:06:24.066Z,82.82
2022-11-18T07:07:25.751Z,82.93
2022-11-18T07:08:31.386Z,82.76
2022-11-18T07:09:36.343Z,82.82
2022-11-18T07:10:37.998Z,82.63
2022-11-18T07:11:41.346Z,82.70
2022-11-18T07:12:42.929Z,82.90
2022-11-18T07:13:46.425Z,82.92
2022-11-18T07:14:48.947Z,83.01
2022-11-18T07:15:50.567Z,82.97
2022-11-18T07:16:53.079Z,83.01
2022-11-18T07:17:54.572Z,83.09
2022-11-18T07:18:57.411Z,82.93
2022-11-18T07:19:59.924Z,82.86
2022-11-18T07:21:02.893Z,82.73
2022-11-18T07:22:05.719Z,82.91
2022-11-18T07:23:07.363Z,82.76
2022-11-18T07:24:14.029Z,82.77
2022-11-18T07:25:15.726Z,82.77
2022-11-18T07:26:19.395Z,82.74
2022-11-18T07:27:20.917Z,82.61
2022-11-18T07:28:23.440Z,83.00
2022-11-18T07:29:26.349Z,82.99
2022-11-18T07:30:27.945Z,82.94
2022-11-18T07:31:30.827Z,82.62
2022-11-18T07:32:32.944Z,82.78
2022-11-18T07:33:36.334Z,82.84
2022-11-18T07:34:37.912Z,82.96
2022-11-18T07:35:40.504Z,82.62
2022-11-18T07:36:43.116Z,82.75
2022-11-18T07:37:44.677Z,82.88
2022-11-18T07:38:47.839Z,82.84
2022-11-18T07:39:50.802Z,82.95
2022-11-18T07:40:53.405Z,82.81
2022-11-18T07:41:56.026Z,82.70
2022-11-18T07:42:57.624Z,83.08
2022-11-18T07:44:02.211Z,82.98
2022-11-18T07:45:04.242Z,82.91
2022-11-18T07:46:11.561Z,82.78
2022-11-18T07:47:13.305Z,82.58
2022-11-18T07:48:15.900Z,82.84
2022-11-18T07:49:18.910Z,83.31
2022-11-18T07:50:20.661Z,82.83
2022-11-18T07:51:26.130Z,82.64
2022-11-18T07:52:27.805Z,82.89
2022-11-18T07:53:32.955Z,82.78
2022-11-18T07:54:35.986Z,82.82
2022-11-18T07:55:39.004Z,82.66
2022-11-18T07:56:41.744Z,82.77
2022-11-18T07:57:43.451Z,82.77
2022-11-18T07:58:46.548Z,82.71
2022-11-18T07:59:48.132Z,82.61
2022-11-18T08:00:50.682Z,82.60
2022-11-18T08:01:52.266Z,82.45
2022-11-18T08:02:54.799Z,82.74
2022-11-18T08:03:58.312Z,82.47
2022-11-18T08:05:00.881Z,82.39
2022-11-18T08:06:03.267Z,82.46
2022-11-18T08:07:05.843Z,82.42
2022-11-18T08:08:07.781Z,82.48
2022-11-18T08:09:10.604Z,82.43
2022-11-18T08:10:12.164Z,82.28
2022-11-18T08:11:22.281Z,82.39
2022-11-18T08:12:25.324Z,82.33
2022-11-18T08:13:27.620Z,82.21
2022-11-18T08:14:30.325Z,82.38
2022-11-18T08:15:31.832Z,82.27
2022-11-18T08:16:34.334Z,82.45
2022-11-18T08:17:35.898Z,82.47
2022-11-18T08:18:38.411Z,82.07
2022-11-18T08:19:39.962Z,82.08
2022-11-18T08:20:42.562Z,82.29
2022-11-18T08:21:45.140Z,82.33
2022-11-18T08:22:47.757Z,82.19
2022-11-18T08:23:50.336Z,82.14
2022-11-18T08:24:52.832Z,82.24
2022-11-18T08:26:03.669Z,82.24
2022-11-18T08:27:07.513Z,82.23
2022-11-18T08:28:09.585Z,82.13
2022-11-18T08:29:12.151Z,82.17
2022-11-18T08:30:14.169Z,82.02
2022-11-18T08:31:19.231Z,82.27
2022-11-18T08:32:21.814Z,82.19
2022-11-18T08:33:23.644Z,82.03
2022-11-18T08:34:26.143Z,82.25
2022-11-18T08:35:28.059Z,82.18
2022-11-18T08:36:33.643Z,82.13
2022-11-18T08:37:35.180Z,82.24
2022-11-18T08:38:38.219Z,82.27
2022-11-18T08:39:40.724Z,82.30
2022-11-18T08:40:45.542Z,82.42
2022-11-18T08:41:48.184Z,82.12
2022-11-18T08:42:52.131Z,82.03
2022-11-18T08:43:53.716Z,82.25
2022-11-18T08:44:56.423Z,82.25
2022-11-18T08:45:57.988Z,82.15
2022-11-18T08:47:00.470Z,82.12
2022-11-18T08:48:02.386Z,82.00
2022-11-18T08:49:04.907Z,82.10
2022-11-18T08:50:08.405Z,82.15
2022-11-18T08:51:12.367Z,82.24
2022-11-18T08:52:13.960Z,82.29
2022-11-18T08:53:16.842Z,82.33
2022-11-18T08:54:19.359Z,82.29
2022-11-18T08:55:21.889Z,82.30
2022-11-18T08:56:24.727Z,82.13
2022-11-18T08:57:27.342Z,82.30
2022-11-18T08:58:30.549Z,82.39
2022-11-18T08:59:33.426Z,82.19
2022-11-18T09:00:34.950Z,82.26
2022-11-18T09:01:38.299Z,82.28
2022-11-18T09:02:41.166Z,82.31
2022-11-18T09:03:42.778Z,82.45
2022-11-18T09:04:48.103Z,82.36
2022-11-18T09:05:50.225Z,82.34
2022-11-18T09:06:52.821Z,82.23
2022-11-18T09:07:55.400Z,82.33
2022-11-18T09:09:00.643Z,82.24
2022-11-18T09:10:06.939Z,82.46
2022-11-18T09:11:10.431Z,82.42
2022-11-18T09:12:14.954Z,82.41
2022-11-18T09:13:44.735Z,82.47
2022-11-18T09:16:02.147Z,82.34
2022-11-18T09:17:04.634Z,82.07
2022-11-18T09:18:06.258Z,82.01
2022-11-18T09:19:32.006Z,82.30
2022-11-18T09:20:31.367Z,82.17
2022-11-18T09:21:36.758Z,82.23
2022-11-18T09:22:42.148Z,81.97
2022-11-18T09:23:44.063Z,82.04
2022-11-18T09:24:46.562Z,82.02
2022-11-18T09:25:48.174Z,82.11
2022-11-18T09:26:50.799Z,81.96
2022-11-18T09:27:55.373Z,81.84
2022-11-18T09:28:57.000Z,81.93
2022-11-18T09:30:00.844Z,81.57
2022-11-18T09:31:04.081Z,81.76
2022-11-18T09:32:06.619Z,81.78
2022-11-18T09:33:08.195Z,81.69
2022-11-18T09:34:11.106Z,81.53
2022-11-18T09:35:14.323Z,81.53
2022-11-18T09:36:17.785Z,81.57
2022-11-18T09:37:20.269Z,81.09
2022-11-18T09:38:21.840Z,81.27
2022-11-18T09:39:24.930Z,81.19
2022-11-18T09:40:28.631Z,81.07
2022-11-18T09:41:45.532Z,80.95
2022-11-18T09:42:58.563Z,81.02
2022-11-18T09:44:08.780Z,80.73
2022-11-18T09:45:24.335Z,80.62
2022-11-18T09:46:33.913Z,80.65
2022-11-18T09:47:37.012Z,80.66
2022-11-18T09:48:57.070Z,80.47
2022-11-18T09:50:14.856Z,80.39
2022-11-18T09:51:28.187Z,80.12
2022-11-18T09:52:36.086Z,80.41
2022-11-18T09:53:42.272Z,80.21
2022-11-18T09:54:44.322Z,79.97
2022-11-18T09:55:48.655Z,80.27
2022-11-18T09:56:52.427Z,79.99
2022-11-18T09:57:59.953Z,80.11
2022-11-18T09:59:04.815Z,79.79
2022-11-18T10:00:13.540Z,79.94
2022-11-18T10:01:21.532Z,79.91
2022-11-18T10:02:50.010Z,79.80
2022-11-18T10:03:51.764Z,79.97
2022-11-18T10:04:55.747Z,79.77
2022-11-18T10:06:04.422Z,79.63
2022-11-18T10:07:16.548Z,79.63
2022-11-18T10:08:24.879Z,79.51
2022-11-18T10:09:32.868Z,79.73
2022-11-18T10:10:43.625Z,79.63
2022-11-18T10:11:59.262Z,79.48
2022-11-18T10:13:09.816Z,79.40
2022-11-18T10:14:27.423Z,79.51
2022-11-18T10:15:36.137Z,79.38
2022-11-18T10:16:53.832Z,79.32
2022-11-18T10:18:09.070Z,79.47
2022-11-18T10:19:25.272Z,79.24
2022-11-18T10:20:38.803Z,79.47
2022-11-18T10:21:54.403Z,79.51
2022-11-18T10:23:03.688Z,79.29
2022-11-18T10:24:13.352Z,79.22
2022-11-18T10:25:17.729Z,79.19
2022-11-18T10:26:33.592Z,79.39
2022-11-18T10:27:38.890Z,79.02
2022-11-18T10:28:41.386Z,79.23
2022-11-18T10:29:44.666Z,79.24
2022-11-18T10:30:47.290Z,79.11
2022-11-18T10:32:04.585Z,79.12
2022-11-18T10:33:24.203Z,79.11
2022-11-18T10:34:26.726Z,78.95
2022-11-18T10:35:31.432Z,78.93
2022-11-18T10:36:35.328Z,78.80
2022-11-18T10:38:07.387Z,78.59
2022-11-18T10:39:14.414Z,78.63
2022-11-18T10:40:25.960Z,78.59
2022-11-18T10:41:27.513Z,78.80
2022-11-18T10:42:35.394Z,78.30
2022-11-18T10:43:49.346Z,78.38
2022-11-18T10:44:52.128Z,78.37
2022-11-18T10:45:54.691Z,78.24
2022-11-18T10:47:17.143Z,78.36
2022-11-18T10:48:20.218Z,78.24
2022-11-18T10:49:21.955Z,78.14
2022-11-18T10:50:34.799Z,78.09
2022-11-18T10:51:37.956Z,78.31
2022-11-18T10:52:53.250Z,77.89
2022-11-18T10:54:07.425Z,77.87
2022-11-18T10:55:21.071Z,77.86
2022-11-18T10:56:23.644Z,77.90
2022-11-18T10:57:26.259Z,77.89
2022-11-18T10:58:32.077Z,77.73
2022-11-18T10:59:36.541Z,77.96
2022-11-18T11:00:42.581Z,77.95
2022-11-18T11:02:04.009Z,77.65
2022-11-18T11:03:39.786Z,77.68
2022-11-18T11:04:42.071Z,77.62
2022-11-18T11:05:44.781Z,77.68
2022-11-18T11:06:46.342Z,77.53
2022-11-18T11:08:28.922Z,77.43
2022-11-18T11:09:28.545Z,77.43
2022-11-18T11:10:30.127Z,77.40
2022-11-18T11:11:34.721Z,77.20
2022-11-18T11:12:46.832Z,77.29
2022-11-18T11:13:49.480Z,77.07
2022-11-18T11:14:55.799Z,77.17
2022-11-18T11:16:03.545Z,77.09
2022-11-18T11:17:12.439Z,77.01
2022-11-18T11:18:39.453Z,76.86
2022-11-18T11:19:50.025Z,77.04
2022-11-18T11:20:51.901Z,76.90
2022-11-18T11:21:54.588Z,76.92
2022-11-18T11:22:56.330Z,76.69
2022-11-18T11:23:59.168Z,76.76
2022-11-18T11:25:01.846Z,76.33
2022-11-18T11:29:15.972Z,76.33
2022-11-18T11:30:21.232Z,75.91
2022-11-18T11:31:29.826Z,75.90
2022-11-18T11:32:52.719Z,75.70
2022-11-18T11:34:01.143Z,75.58
2022-11-18T11:35:12.608Z,75.54
2022-11-18T11:36:26.589Z,75.29
2022-11-18T11:37:37.135Z,75.14
2022-11-18T11:38:55.091Z,75.15
2022-11-18T11:40:20.764Z,75.06
2022-11-18T11:41:24.388Z,74.97
2022-11-18T11:42:38.871Z,74.73
2022-11-18T11:43:54.820Z,74.60
2022-11-18T11:45:11.010Z,74.75
2022-11-18T11:46:26.873Z,74.59
2022-11-18T11:47:49.951Z,74.38
2022-11-18T11:48:59.411Z,74.37
2022-11-18T11:50:06.068Z,74.08
2022-11-18T11:51:17.094Z,74.41
2022-11-18T11:52:31.797Z,74.25
2022-11-18T11:53:53.339Z,74.10
2022-11-18T11:55:08.861Z,73.94
2022-11-18T11:56:22.659Z,73.88
2022-11-18T11:57:38.814Z,73.94
2022-11-18T11:58:58.063Z,73.92
2022-11-18T12:00:05.259Z,73.64
2022-11-18T12:01:21.038Z,73.50
2022-11-18T12:02:48.623Z,73.51
2022-11-18T12:03:57.504Z,73.46
2022-11-18T12:05:08.771Z,73.72
2022-11-18T12:06:12.088Z,73.33
2022-11-18T12:07:19.437Z,73.57
2022-11-18T12:08:24.619Z,73.59
2022-11-18T12:09:37.168Z,73.47
2022-11-18T12:10:46.285Z,73.36
2022-11-18T12:11:55.044Z,73.29
2022-11-18T12:13:19.443Z,73.24
2022-11-18T12:14:35.791Z,73.39
2022-11-18T12:15:50.622Z,73.20
2022-11-18T12:16:59.786Z,73.29
2022-11-18T12:18:14.640Z,73.13
2022-11-18T12:19:19.123Z,73.17
2022-11-18T12:20:44.706Z,72.92
2022-11-18T12:21:54.594Z,72.77
2022-11-18T12:23:20.301Z,72.76
2022-11-18T12:24:31.360Z,72.82
2022-11-18T12:26:04.434Z,72.89
2022-11-18T12:27:23.673Z,72.86
2022-11-18T12:28:29.181Z,72.87
2022-11-18T12:29:44.952Z,73.01
2022-11-18T12:30:46.722Z,73.06
2022-11-18T12:31:50.579Z,73.08
2022-11-18T12:32:57.566Z,73.06
2022-11-18T12:34:03.886Z,73.06
2022-11-18T12:35:25.654Z,72.89
2022-11-18T12:36:28.230Z,72.95
2022-11-18T12:37:57.536Z,73.02
2022-11-18T12:39:21.109Z,72.71
2022-11-18T12:40:39.539Z,73.29
2022-11-18T12:42:18.254Z,73.03
2022-11-18T12:44:05.776Z,72.86
2022-11-18T12:45:56.743Z,72.91
2022-11-18T12:47:00.109Z,73.19
2022-11-18T12:48:01.679Z,72.87
2022-11-18T12:49:43.024Z,72.85
2022-11-18T12:50:51.048Z,72.95
2022-11-18T12:51:55.009Z,72.71
2022-11-18T12:52:56.693Z,72.63
2022-11-18T12:53:59.350Z,72.93
2022-11-18T12:55:05.647Z,72.71
2022-11-18T12:56:13.451Z,72.77
2022-11-18T12:57:19.613Z,72.86
2022-11-18T12:58:26.944Z,73.24
2022-11-18T12:59:36.179Z,72.89
2022-11-18T13:00:52.483Z,73.20
2022-11-18T13:02:04.521Z,72.94
2022-11-18T13:03:06.965Z,73.12
2022-11-18T13:04:13.094Z,73.29
2022-11-18T13:05:22.408Z,73.31
2022-11-18T13:06:29.959Z,73.40
2022-11-18T13:07:52.200Z,73.18
2022-11-18T13:08:59.155Z,73.46
2022-11-18T13:10:02.385Z,73.61
2022-11-18T13:11:34.065Z,73.38
2022-11-18T13:12:37.117Z,73.72
2022-11-18T13:13:39.952Z,73.60
2022-11-18T13:15:02.288Z,73.40
2022-11-18T13:16:38.308Z,73.59
2022-11-18T13:17:55.424Z,73.74
2022-11-18T13:18:57.899Z,73.77
2022-11-18T13:19:59.448Z,73.63
2022-11-18T13:21:23.191Z,73.93
2022-11-18T13:22:44.843Z,73.77
2022-11-18T13:23:57.660Z,73.80
2022-11-18T13:25:03.209Z,74.18
2022-11-18T13:26:06.803Z,73.95
2022-11-18T13:27:27.391Z,74.05
2022-11-18T13:28:37.389Z,74.05
2022-11-18T13:29:53.866Z,74.15
2022-11-18T13:31:06.112Z,74.10
2022-11-18T13:32:21.419Z,74.16
2022-11-18T13:33:24.870Z,74.35
2022-11-18T13:34:28.916Z,74.25
2022-11-18T13:35:31.522Z,74.29
2022-11-18T13:36:33.270Z,74.49
2022-11-18T13:37:37.130Z,74.64
2022-11-18T13:38:41.770Z,74.40
2022-11-18T13:39:44.603Z,74.57
2022-11-18T13:41:04.249Z,74.62
2022-11-18T13:42:14.892Z,74.50
2022-11-18T13:43:27.036Z,74.74
2022-11-18T13:44:31.838Z,74.59
2022-11-18T13:45:34.948Z,74.71
2022-11-18T13:46:37.189Z,74.63
2022-11-18T13:47:42.952Z,74.86
2022-11-18T13:48:50.406Z,74.90
2022-11-18T13:50:02.811Z,74.82
2022-11-18T13:51:04.763Z,74.93
2022-11-18T13:52:12.859Z,75.02
2022-11-18T13:53:30.763Z,74.97
2022-11-18T13:54:32.509Z,75.01
2022-11-18T13:55:39.189Z,74.89
2022-11-18T13:56:41.935Z,75.19
2022-11-18T13:57:47.982Z,75.32
2022-11-18T13:59:16.240Z,75.46
2022-11-18T14:00:23.208Z,75.44
2022-11-18T14:01:28.477Z,75.37
2022-11-18T14:02:31.146Z,75.26
2022-11-18T14:03:35.450Z,75.30
2022-11-18T14:04:51.937Z,75.43
2022-11-18T14:05:55.061Z,75.39
2022-11-18T14:07:32.084Z,75.45
2022-11-18T14:08:37.058Z,75.55
2022-11-18T14:09:54.320Z,75.42
2022-11-18T14:10:57.526Z,75.54
2022-11-18T14:12:01.533Z,75.59
2022-11-18T14:13:19.895Z,75.47
2022-11-18T14:14:30.036Z,75.66
2022-11-18T14:15:43.236Z,75.61
2022-11-18T14:16:46.674Z,75.42
2022-11-18T14:17:55.031Z,75.87
2022-11-18T14:18:57.612Z,75.88
2022-11-18T14:20:08.339Z,75.68
2022-11-18T14:21:13.596Z,75.89
2022-11-18T14:22:17.591Z,75.66
2022-11-18T14:23:26.326Z,75.83
2022-11-18T14:24:29.273Z,75.78